sensor_id;sensor_type;location;lat;lon;timestamp;pressure;altitude;pressure_sealevel;temperature;humidity
68616;BME280;57261;47.504;19.084;2022-11-20T05:59:42;100054.19;;;10.86;83.67
68616;BME280;57261;47.504;19.084;2022-11-20T06:02:43;100050.94;;;11.89;78.66
68616;BME280;57261;47.504;19.084;2022-11-20T06:05:44;100052.13;;;12.29;76.46
68616;BME280;57261;47.504;19.084;2022-11-20T06:08:45;100041.97;;;12.48;75.56
68616;BME280;57261;47.504;19.084;2022-11-20T06:11:45;100047.19;;;12.70;74.55
68616;BME280;57261;47.504;19.084;2022-11-20T06:14:46;100066.94;;;12.96;74.20
68616;BME280;57261;47.504;19.084;2022-11-20T06:17:46;100056.88;;;13.11;73.82
68616;BME280;57261;47.504;19.084;2022-11-20T06:20:49;100037.75;;;13.15;73.83
68616;BME280;57261;47.504;19.084;2022-11-20T06:23:58;100039.97;;;13.24;73.68
68616;BME280;57261;47.504;19.084;2022-11-20T06:26:59;100043.81;;;13.14;72.95
68616;BME280;57261;47.504;19.084;2022-11-20T06:29:59;100049.53;;;13.22;73.45
68616;BME280;57261;47.504;19.084;2022-11-20T06:32:59;100039.84;;;13.27;72.97
68616;BME280;57261;47.504;19.084;2022-11-20T06:36:00;100070.72;;;13.31;72.41
68616;BME280;57261;47.504;19.084;2022-11-20T06:39:01;100079.56;;;13.26;72.65
68616;BME280;57261;47.504;19.084;2022-11-20T06:42:02;100081.81;;;13.35;72.75
68616;BME280;57261;47.504;19.084;2022-11-20T06:45:03;100100.16;;;13.29;72.07
68616;BME280;57261;47.504;19.084;2022-11-20T06:48:03;100098.91;;;13.39;72.75
68616;BME280;57261;47.504;19.084;2022-11-20T06:51:05;100081.00;;;13.33;72.61
68616;BME280;57261;47.504;19.084;2022-11-20T06:54:07;100098.13;;;13.37;71.45
68616;BME280;57261;47.504;19.084;2022-11-20T06:57:07;100099.03;;;13.36;72.27
68616;BME280;57261;47.504;19.084;2022-11-20T07:00:08;100081.63;;;13.39;71.96
68616;BME280;57261;47.504;19.084;2022-11-20T07:03:10;100075.66;;;13.37;71.73
68616;BME280;57261;47.504;19.084;2022-11-20T07:06:11;100072.84;;;13.43;71.76
68616;BME280;57261;47.504;19.084;2022-11-20T07:09:14;100073.81;;;13.41;71.77
68616;BME280;57261;47.504;19.084;2022-11-20T07:12:14;100076.88;;;13.50;72.17
68616;BME280;57261;47.504;19.084;2022-11-20T07:15:15;100079.94;;;13.38;70.98
68616;BME280;57261;47.504;19.084;2022-11-20T07:18:15;100079.06;;;13.39;72.33
68616;BME280;57261;47.504;19.084;2022-11-20T07:21:15;100086.31;;;13.30;71.16
68616;BME280;57261;47.504;19.084;2022-11-20T07:24:16;100097.41;;;13.33;71.00
68616;BME280;57261;47.504;19.084;2022-11-20T07:27:16;100093.00;;;13.35;72.06
68616;BME280;57261;47.504;19.084;2022-11-20T07:30:17;100082.59;;;13.37;72.28
68616;BME280;57261;47.504;19.084;2022-11-20T07:33:18;100092.59;;;13.46;72.09
68616;BME280;57261;47.504;19.084;2022-11-20T07:36:18;100103.56;;;13.52;69.99
68616;BME280;57261;47.504;19.084;2022-11-20T07:39:19;100113.19;;;13.49;71.33
68616;BME280;57261;47.504;19.084;2022-11-20T07:42:19;100103.72;;;13.48;71.64
68616;BME280;57261;47.504;19.084;2022-11-20T07:45:21;100102.59;;;13.55;71.76
68616;BME280;57261;47.504;19.084;2022-11-20T07:48:23;100107.53;;;13.61;71.79
68616;BME280;57261;47.504;19.084;2022-11-20T07:51:23;100110.03;;;13.64;71.35
68616;BME280;57261;47.504;19.084;2022-11-20T07:54:24;100113.56;;;13.61;71.31
68616;BME280;57261;47.504;19.084;2022-11-20T07:57:24;100114.28;;;13.65;71.13
68616;BME280;57261;47.504;19.084;2022-11-20T08:00:26;100111.88;;;13.60;71.35
68616;BME280;57261;47.504;19.084;2022-11-20T08:03:26;100105.59;;;13.66;71.55
68616;BME280;57261;47.504;19.084;2022-11-20T08:06:26;100081.78;;;13.58;71.71
68616;BME280;57261;47.504;19.084;2022-11-20T08:09:28;100085.56;;;13.71;71.36
68616;BME280;57261;47.504;19.084;2022-11-20T08:12:29;100083.09;;;13.68;71.21
68616;BME280;57261;47.504;19.084;2022-11-20T08:15:49;100091.66;;;13.70;70.88
68616;BME280;57261;47.504;19.084;2022-11-20T08:18:54;100097.06;;;13.64;71.32
68616;BME280;57261;47.504;19.084;2022-11-20T08:21:55;100094.72;;;13.58;71.02
68616;BME280;57261;47.504;19.084;2022-11-20T08:24:55;100093.69;;;13.62;70.41
68616;BME280;57261;47.504;19.084;2022-11-20T08:28:04;100084.41;;;13.56;71.27
68616;BME280;57261;47.504;19.084;2022-11-20T08:31:06;100086.72;;;13.64;71.24
68616;BME280;57261;47.504;19.084;2022-11-20T08:34:06;100085.03;;;13.63;70.64
68616;BME280;57261;47.504;19.084;2022-11-20T08:37:06;100077.31;;;13.61;70.23
68616;BME280;57261;47.504;19.084;2022-11-20T08:40:11;100091.41;;;13.76;71.30
68616;BME280;57261;47.504;19.084;2022-11-20T08:43:11;100085.59;;;13.69;71.32
68616;BME280;57261;47.504;19.084;2022-11-20T08:46:12;100083.50;;;13.57;69.97
68616;BME280;57261;47.504;19.084;2022-11-20T08:49:13;100095.03;;;13.72;71.64
68616;BME280;57261;47.504;19.084;2022-11-20T08:52:14;100106.81;;;13.79;71.35
68616;BME280;57261;47.504;19.084;2022-11-20T08:55:15;100106.81;;;13.79;70.91
68616;BME280;57261;47.504;19.084;2022-11-20T08:58:17;100101.50;;;13.82;70.68
68616;BME280;57261;47.504;19.084;2022-11-20T09:01:22;100099.25;;;13.74;70.50
68616;BME280;57261;47.504;19.084;2022-11-20T09:04:23;100106.06;;;13.75;68.28
68616;BME280;57261;47.504;19.084;2022-11-20T09:07:23;100114.16;;;13.68;69.40
68616;BME280;57261;47.504;19.084;2022-11-20T09:10:24;100120.00;;;13.73;70.76
68616;BME280;57261;47.504;19.084;2022-11-20T09:13:26;100103.06;;;13.64;70.89
68616;BME280;57261;47.504;19.084;2022-11-20T09:16:27;100119.09;;;13.74;70.54
68616;BME280;57261;47.504;19.084;2022-11-20T09:19:37;100106.16;;;13.74;71.20
68616;BME280;57261;47.504;19.084;2022-11-20T09:22:39;100138.50;;;13.85;70.65
68616;BME280;57261;47.504;19.084;2022-11-20T09:25:40;100136.53;;;13.92;70.75
68616;BME280;57261;47.504;19.084;2022-11-20T09:28:40;100119.56;;;13.83;70.35
68616;BME280;57261;47.504;19.084;2022-11-20T09:31:41;100116.81;;;13.88;67.93
68616;BME280;57261;47.504;19.084;2022-11-20T09:34:41;100111.75;;;13.85;69.70
68616;BME280;57261;47.504;19.084;2022-11-20T09:37:42;100107.22;;;13.90;70.51
68616;BME280;57261;47.504;19.084;2022-11-20T09:40:52;100096.97;;;13.87;70.41
68616;BME280;57261;47.504;19.084;2022-11-20T09:57:14;100091.63;;;14.12;69.95
68616;BME280;57261;47.504;19.084;2022-11-20T10:00:17;100101.59;;;14.21;69.70
68616;BME280;57261;47.504;19.084;2022-11-20T10:03:37;100083.34;;;14.24;69.53
68616;BME280;57261;47.504;19.084;2022-11-20T10:09:55;100084.97;;;14.27;69.57
68616;BME280;57261;47.504;19.084;2022-11-20T10:13:09;100085.72;;;14.29;69.52
68616;BME280;57261;47.504;19.084;2022-11-20T10:29:45;100045.16;;;14.48;68.56
68616;BME280;57261;47.504;19.084;2022-11-20T10:32:52;100037.50;;;14.45;68.65
68616;BME280;57261;47.504;19.084;2022-11-20T10:36:04;100051.53;;;14.59;68.41
68616;BME280;57261;47.504;19.084;2022-11-20T10:39:27;100042.81;;;14.62;68.52
68616;BME280;57261;47.504;19.084;2022-11-20T10:42:35;100036.06;;;14.58;68.56
68616;BME280;57261;47.504;19.084;2022-11-20T10:48:56;100038.81;;;14.55;68.89
68616;BME280;57261;47.504;19.084;2022-11-20T10:52:11;100029.19;;;14.57;68.72
68616;BME280;57261;47.504;19.084;2022-11-20T10:55:53;100033.53;;;14.56;68.79
68616;BME280;57261;47.504;19.084;2022-11-20T11:02:54;100055.81;;;14.60;68.29
68616;BME280;57261;47.504;19.084;2022-11-20T11:06:03;100056.72;;;14.59;68.19
68616;BME280;57261;47.504;19.084;2022-11-20T11:09:19;100064.38;;;14.62;68.28
68616;BME280;57261;47.504;19.084;2022-11-20T11:12:25;100037.38;;;14.48;68.12
68616;BME280;57261;47.504;19.084;2022-11-20T11:15:40;100061.25;;;14.74;67.89
68616;BME280;57261;47.504;19.084;2022-11-20T11:18:41;100059.03;;;14.85;67.92
68616;BME280;57261;47.504;19.084;2022-11-20T11:21:51;100035.22;;;14.75;67.70
68616;BME280;57261;47.504;19.084;2022-11-20T11:24:53;100053.63;;;14.89;67.38
68616;BME280;57261;47.504;19.084;2022-11-20T11:27:56;100053.41;;;14.94;67.60
68616;BME280;57261;47.504;19.084;2022-11-20T11:30:57;100060.19;;;14.98;67.21
68616;BME280;57261;47.504;19.084;2022-11-20T11:34:12;100054.06;;;14.99;67.00
68616;BME280;57261;47.504;19.084;2022-11-20T11:37:17;100054.00;;;15.00;66.98
68616;BME280;57261;47.504;19.084;2022-11-20T11:40:19;100056.50;;;15.02;67.04
68616;BME280;57261;47.504;19.084;2022-11-20T11:43:25;100036.53;;;15.04;67.07
68616;BME280;57261;47.504;19.084;2022-11-20T11:46:55;100037.44;;;15.03;67.03
68616;BME280;57261;47.504;19.084;2022-11-20T11:50:14;100040.88;;;15.03;67.33
68616;BME280;57261;47.504;19.084;2022-11-20T11:53:21;100037.53;;;15.01;67.25
68616;BME280;57261;47.504;19.084;2022-11-20T11:56:23;100025.38;;;15.02;67.16
68616;BME280;57261;47.504;19.084;2022-11-20T11:59:27;100017.66;;;15.00;67.19
68616;BME280;57261;47.504;19.084;2022-11-20T12:02:37;100025.09;;;15.08;67.08
68616;BME280;57261;47.504;19.084;2022-11-20T12:05:46;100023.69;;;15.01;67.18
68616;BME280;57261;47.504;19.084;2022-11-20T12:08:56;100020.25;;;15.00;67.16
68616;BME280;57261;47.504;19.084;2022-11-20T12:12:07;100033.56;;;15.11;66.95
68616;BME280;57261;47.504;19.084;2022-11-20T12:15:25;100028.47;;;15.10;66.83
68616;BME280;57261;47.504;19.084;2022-11-20T12:18:26;100024.47;;;15.03;66.77
68616;BME280;57261;47.504;19.084;2022-11-20T12:25:04;100030.19;;;15.09;66.95
68616;BME280;57261;47.504;19.084;2022-11-20T12:28:22;100019.75;;;15.11;67.04
68616;BME280;57261;47.504;19.084;2022-11-20T12:31:56;100018.69;;;15.15;66.97
68616;BME280;57261;47.504;19.084;2022-11-20T12:57:55;100025.25;;;15.05;67.18
68616;BME280;57261;47.504;19.084;2022-11-20T13:01:17;100033.50;;;15.13;67.16
68616;BME280;57261;47.504;19.084;2022-11-20T13:05:21;100031.88;;;15.10;67.12
68616;BME280;57261;47.504;19.084;2022-11-20T13:08:29;100032.88;;;15.08;67.44
68616;BME280;57261;47.504;19.084;2022-11-20T13:15:26;100037.06;;;15.10;67.29
68616;BME280;57261;47.504;19.084;2022-11-20T13:18:37;100038.22;;;15.05;67.00
68616;BME280;57261;47.504;19.084;2022-11-20T13:21:40;100033.84;;;15.05;67.07
68616;BME280;57261;47.504;19.084;2022-11-20T13:24:50;100026.91;;;15.06;67.05
68616;BME280;57261;47.504;19.084;2022-11-20T13:27:52;100024.09;;;15.10;66.89
68616;BME280;57261;47.504;19.084;2022-11-20T13:30:54;100024.19;;;15.09;67.41
68616;BME280;57261;47.504;19.084;2022-11-20T13:33:56;100008.47;;;15.12;67.30
68616;BME280;57261;47.504;19.084;2022-11-20T13:36:59;100015.47;;;15.10;67.72
68616;BME280;57261;47.504;19.084;2022-11-20T13:43:26;100001.59;;;15.11;67.44
68616;BME280;57261;47.504;19.084;2022-11-20T13:46:36;100000.72;;;15.10;67.49
68616;BME280;57261;47.504;19.084;2022-11-20T13:49:39;99991.41;;;15.06;66.98
68616;BME280;57261;47.504;19.084;2022-11-20T13:56:24;99978.66;;;15.02;67.31
68616;BME280;57261;47.504;19.084;2022-11-20T14:06:31;99980.34;;;15.03;67.44
68616;BME280;57261;47.504;19.084;2022-11-20T14:09:33;99964.56;;;14.89;67.86
68616;BME280;57261;47.504;19.084;2022-11-20T14:12:34;99993.44;;;15.00;67.71
68616;BME280;57261;47.504;19.084;2022-11-20T14:15:34;99979.84;;;14.95;67.44
68616;BME280;57261;47.504;19.084;2022-11-20T14:18:35;99984.97;;;14.96;67.79
68616;BME280;57261;47.504;19.084;2022-11-20T14:21:35;99990.38;;;14.92;67.93
68616;BME280;57261;47.504;19.084;2022-11-20T14:24:36;99991.09;;;14.95;67.71
68616;BME280;57261;47.504;19.084;2022-11-20T14:27:37;99993.53;;;14.98;68.02
68616;BME280;57261;47.504;19.084;2022-11-20T14:30:44;99996.28;;;14.95;67.91
68616;BME280;57261;47.504;19.084;2022-11-20T14:33:44;99999.84;;;14.93;67.75
68616;BME280;57261;47.504;19.084;2022-11-20T14:36:45;100006.09;;;14.89;67.90
68616;BME280;57261;47.504;19.084;2022-11-20T14:39:53;100021.66;;;14.89;67.68
68616;BME280;57261;47.504;19.084;2022-11-20T14:42:54;100016.59;;;14.86;67.51
68616;BME280;57261;47.504;19.084;2022-11-20T14:45:57;100017.44;;;14.86;68.03
68616;BME280;57261;47.504;19.084;2022-11-20T14:49:02;100019.06;;;14.89;67.91
68616;BME280;57261;47.504;19.084;2022-11-20T14:52:23;100027.63;;;14.91;68.37
68616;BME280;57261;47.504;19.084;2022-11-20T14:55:33;100021.78;;;14.86;68.08
68616;BME280;57261;47.504;19.084;2022-11-20T14:58:34;100014.06;;;14.84;68.41
68616;BME280;57261;47.504;19.084;2022-11-20T15:01:35;100025.50;;;14.80;68.25
68616;BME280;57261;47.504;19.084;2022-11-20T15:04:49;100015.25;;;14.77;68.23
68616;BME280;57261;47.504;19.084;2022-11-20T15:08:05;100034.13;;;14.81;68.51
68616;BME280;57261;47.504;19.084;2022-11-20T15:11:18;100032.59;;;14.77;68.51
68616;BME280;57261;47.504;19.084;2022-11-20T15:14:19;100032.44;;;14.80;68.54
68616;BME280;57261;47.504;19.084;2022-11-20T15:17:20;100021.44;;;14.75;67.94
68616;BME280;57261;47.504;19.084;2022-11-20T15:20:25;100026.63;;;14.75;68.47
68616;BME280;57261;47.504;19.084;2022-11-20T15:23:28;100030.81;;;14.77;68.46
68616;BME280;57261;47.504;19.084;2022-11-20T15:26:29;100032.50;;;14.78;68.67
68616;BME280;57261;47.504;19.084;2022-11-20T15:29:29;100031.81;;;14.75;68.42
68616;BME280;57261;47.504;19.084;2022-11-20T15:32:30;100023.47;;;14.69;68.56
68616;BME280;57261;47.504;19.084;2022-11-20T15:35:30;100036.91;;;14.76;68.54
68616;BME280;57261;47.504;19.084;2022-11-20T15:38:30;100037.81;;;14.75;68.44
68616;BME280;57261;47.504;19.084;2022-11-20T15:41:31;100026.81;;;14.71;68.66
68616;BME280;57261;47.504;19.084;2022-11-20T15:44:31;100038.06;;;14.71;68.81
68616;BME280;57261;47.504;19.084;2022-11-20T15:47:34;100041.75;;;14.66;64.92
68616;BME280;57261;47.504;19.084;2022-11-20T15:50:38;100050.25;;;14.69;68.64
68616;BME280;57261;47.504;19.084;2022-11-20T15:53:40;100034.09;;;14.63;68.59
68616;BME280;57261;47.504;19.084;2022-11-20T15:56:41;100016.22;;;14.57;68.59
68616;BME280;57261;47.504;19.084;2022-11-20T15:59:42;100034.09;;;14.63;69.19
68616;BME280;57261;47.504;19.084;2022-11-20T16:02:42;100039.09;;;14.67;69.01
68616;BME280;57261;47.504;19.084;2022-11-20T16:05:43;100029.25;;;14.55;69.02
68616;BME280;57261;47.504;19.084;2022-11-20T16:08:46;100038.25;;;14.67;68.99
68616;BME280;57261;47.504;19.084;2022-11-20T16:11:47;100043.44;;;14.67;68.63
68616;BME280;57261;47.504;19.084;2022-11-20T16:14:47;100042.53;;;14.68;68.77
68616;BME280;57261;47.504;19.084;2022-11-20T16:18:09;100035.97;;;14.59;68.48
68616;BME280;57261;47.504;19.084;2022-11-20T16:21:11;100029.84;;;14.62;69.02
68616;BME280;57261;47.504;19.084;2022-11-20T16:24:15;100015.47;;;14.55;69.01
68616;BME280;57261;47.504;19.084;2022-11-20T16:27:16;100026.47;;;14.60;68.01
68616;BME280;57261;47.504;19.084;2022-11-20T16:30:16;100025.59;;;14.59;69.15
68616;BME280;57261;47.504;19.084;2022-11-20T16:33:19;100027.44;;;14.57;69.23
68616;BME280;57261;47.504;19.084;2022-11-20T16:36:21;100029.88;;;14.60;69.22
68616;BME280;57261;47.504;19.084;2022-11-20T16:39:24;100029.13;;;14.58;68.86
68616;BME280;57261;47.504;19.084;2022-11-20T16:42:25;100022.25;;;14.57;68.94
68616;BME280;57261;47.504;19.084;2022-11-20T16:45:26;100021.84;;;14.66;69.28
68616;BME280;57261;47.504;19.084;2022-11-20T16:48:27;100032.38;;;14.63;69.19
68616;BME280;57261;47.504;19.084;2022-11-20T16:51:29;100016.91;;;14.60;69.05
68616;BME280;57261;47.504;19.084;2022-11-20T16:54:30;100015.22;;;14.59;69.14
68616;BME280;57261;47.504;19.084;2022-11-20T16:57:31;100022.09;;;14.60;68.63
68616;BME280;57261;47.504;19.084;2022-11-20T17:00:39;100008.78;;;14.49;69.39
68616;BME280;57261;47.504;19.084;2022-11-20T17:03:41;100008.50;;;14.55;69.08
68616;BME280;57261;47.504;19.084;2022-11-20T17:06:43;100002.34;;;14.58;69.05
68616;BME280;57261;47.504;19.084;2022-11-20T17:09:43;99998.91;;;14.57;69.37
68616;BME280;57261;47.504;19.084;2022-11-20T17:12:44;99997.22;;;14.56;69.07
68616;BME280;57261;47.504;19.084;2022-11-20T17:15:44;99998.75;;;14.60;69.09
68616;BME280;57261;47.504;19.084;2022-11-20T17:18:45;99991.97;;;14.58;69.33
68616;BME280;57261;47.504;19.084;2022-11-20T17:21:45;99982.50;;;14.57;69.27
68616;BME280;57261;47.504;19.084;2022-11-20T17:24:45;99979.91;;;14.57;69.47
68616;BME280;57261;47.504;19.084;2022-11-20T17:27:46;99976.50;;;14.56;69.09
68616;BME280;57261;47.504;19.084;2022-11-20T17:30:47;99986.00;;;14.56;69.56
68616;BME280;57261;47.504;19.084;2022-11-20T17:33:48;99980.34;;;14.48;69.00
68616;BME280;57261;47.504;19.084;2022-11-20T17:36:48;99982.41;;;14.40;68.83
68616;BME280;57261;47.504;19.084;2022-11-20T17:39:51;99979.34;;;14.50;68.67
68616;BME280;57261;47.504;19.084;2022-11-20T17:42:52;99969.25;;;14.44;68.73
68616;BME280;57261;47.504;19.084;2022-11-20T17:45:52;99960.56;;;14.45;69.20
68616;BME280;57261;47.504;19.084;2022-11-20T17:48:54;99956.22;;;14.46;69.43
68616;BME280;57261;47.504;19.084;2022-11-20T17:51:54;99962.22;;;14.46;69.74
68616;BME280;57261;47.504;19.084;2022-11-20T17:54:55;99967.41;;;14.46;68.43
68616;BME280;57261;47.504;19.084;2022-11-20T17:57:57;99969.19;;;14.46;69.47
68616;BME280;57261;47.504;19.084;2022-11-20T18:01:05;99968.41;;;14.44;70.03
68616;BME280;57261;47.504;19.084;2022-11-20T18:04:06;99966.09;;;14.38;69.34
68616;BME280;57261;47.504;19.084;2022-11-20T18:07:06;99954.88;;;14.37;69.51
68616;BME280;57261;47.504;19.084;2022-11-20T18:10:07;99975.22;;;14.26;68.39
68616;BME280;57261;47.504;19.084;2022-11-20T18:13:08;99985.34;;;14.32;69.34
68616;BME280;57261;47.504;19.084;2022-11-20T18:16:08;99997.53;;;14.30;69.91
68616;BME280;57261;47.504;19.084;2022-11-20T18:19:10;99997.38;;;14.33;69.94
68616;BME280;57261;47.504;19.084;2022-11-20T18:22:13;99975.50;;;14.20;69.83
68616;BME280;57261;47.504;19.084;2022-11-20T18:25:14;99998.06;;;14.38;69.84
68616;BME280;57261;47.504;19.084;2022-11-20T18:28:14;99986.72;;;14.21;69.14
68616;BME280;57261;47.504;19.084;2022-11-20T18:31:15;100009.78;;;14.27;69.66
68616;BME280;57261;47.504;19.084;2022-11-20T18:34:15;100017.56;;;14.27;70.19
68616;BME280;57261;47.504;19.084;2022-11-20T18:37:16;100002.84;;;14.27;69.85
68616;BME280;57261;47.504;19.084;2022-11-20T18:40:17;100030.19;;;14.34;68.48
68616;BME280;57261;47.504;19.084;2022-11-20T18:43:17;100036.22;;;14.35;69.92
68616;BME280;57261;47.504;19.084;2022-11-20T18:46:36;100041.47;;;14.33;69.52
68616;BME280;57261;47.504;19.084;2022-11-20T18:49:37;100039.13;;;14.27;68.42
68616;BME280;57261;47.504;19.084;2022-11-20T18:52:41;100041.41;;;14.35;69.85
68616;BME280;57261;47.504;19.084;2022-11-20T18:55:43;100038.88;;;14.33;69.05
68616;BME280;57261;47.504;19.084;2022-11-20T18:58:43;100028.97;;;14.23;68.13
68616;BME280;57261;47.504;19.084;2022-11-20T19:01:45;100033.25;;;14.24;69.88
68616;BME280;57261;47.504;19.084;2022-11-20T19:04:46;100025.47;;;14.24;69.67
68616;BME280;57261;47.504;19.084;2022-11-20T19:07:46;100039.59;;;14.37;69.56
68616;BME280;57261;47.504;19.084;2022-11-20T19:10:47;100046.53;;;14.36;69.77
68616;BME280;57261;47.504;19.084;2022-11-20T19:13:47;100040.81;;;14.28;68.90
68616;BME280;57261;47.504;19.084;2022-11-20T19:16:48;100039.94;;;14.29;68.94
68616;BME280;57261;47.504;19.084;2022-11-20T19:19:48;100046.13;;;14.25;68.75
68616;BME280;57261;47.504;19.084;2022-11-20T19:22:49;100034.59;;;14.12;70.15
68616;BME280;57261;47.504;19.084;2022-11-20T19:25:50;100043.03;;;14.17;69.50
68616;BME280;57261;47.504;19.084;2022-11-20T19:28:51;100036.88;;;14.20;69.59
68616;BME280;57261;47.504;19.084;2022-11-20T19:31:51;100027.50;;;14.17;68.32
68616;BME280;57261;47.504;19.084;2022-11-20T19:34:52;100023.44;;;13.05;56.41
68616;BME280;57261;47.504;19.084;2022-11-20T19:37:52;100017.94;;;12.68;57.50
68616;BME280;57261;47.504;19.084;2022-11-20T19:40:53;100023.81;;;12.96;64.87
68616;BME280;57261;47.504;19.084;2022-11-20T19:43:59;100016.84;;;13.41;71.53
68616;BME280;57261;47.504;19.084;2022-11-20T19:47:00;100027.09;;;13.65;70.56
68616;BME280;57261;47.504;19.084;2022-11-20T19:50:03;100019.66;;;13.78;70.56
68616;BME280;57261;47.504;19.084;2022-11-20T19:53:04;100016.75;;;13.85;70.40
68616;BME280;57261;47.504;19.084;2022-11-20T19:56:07;100004.53;;;13.47;68.35
68616;BME280;57261;47.504;19.084;2022-11-20T19:59:07;99977.94;;;13.64;71.30
68616;BME280;57261;47.504;19.084;2022-11-20T20:02:10;100003.69;;;13.88;71.22
68616;BME280;57261;47.504;19.084;2022-11-20T20:05:10;100004.69;;;14.04;71.00
68616;BME280;57261;47.504;19.084;2022-11-20T20:08:11;99999.53;;;14.04;70.99
68616;BME280;57261;47.504;19.084;2022-11-20T20:11:13;99994.22;;;14.07;70.60
68616;BME280;57261;47.504;19.084;2022-11-20T20:14:15;99992.31;;;14.12;70.79
68616;BME280;57261;47.504;19.084;2022-11-20T20:17:15;99980.16;;;14.12;70.48
68616;BME280;57261;47.504;19.084;2022-11-20T20:20:16;99975.00;;;14.12;70.49
68616;BME280;57261;47.504;19.084;2022-11-20T20:23:16;99970.66;;;14.13;70.23
68616;BME280;57261;47.504;19.084;2022-11-20T20:26:17;99978.44;;;14.13;69.65
68616;BME280;57261;47.504;19.084;2022-11-20T20:29:17;99965.91;;;14.02;70.28
68616;BME280;57261;47.504;19.084;2022-11-20T20:32:21;99989.88;;;14.07;66.89
68616;BME280;57261;47.504;19.084;2022-11-20T20:35:22;99980.47;;;14.05;69.93
68616;BME280;57261;47.504;19.084;2022-11-20T20:38:23;99971.88;;;14.04;69.20
68616;BME280;57261;47.504;19.084;2022-11-20T20:41:23;99982.56;;;13.97;67.63
68616;BME280;57261;47.504;19.084;2022-11-20T20:44:24;99977.38;;;13.97;68.62
68616;BME280;57261;47.504;19.084;2022-11-20T20:47:43;99964.13;;;13.85;70.23
68616;BME280;57261;47.504;19.084;2022-11-20T20:50:54;99974.25;;;13.89;70.78
68616;BME280;57261;47.504;19.084;2022-11-20T20:53:55;99961.03;;;13.75;69.76
68616;BME280;57261;47.504;19.084;2022-11-20T20:56:55;99980.47;;;13.85;70.30
68616;BME280;57261;47.504;19.084;2022-11-20T20:59:56;99987.44;;;13.85;70.92
68616;BME280;57261;47.504;19.084;2022-11-20T21:02:56;99976.91;;;13.88;71.01
68616;BME280;57261;47.504;19.084;2022-11-20T21:05:56;99978.34;;;13.95;70.25
68616;BME280;57261;47.504;19.084;2022-11-20T21:08:57;99981.53;;;13.81;69.10
68616;BME280;57261;47.504;19.084;2022-11-20T21:11:59;99978.97;;;13.80;70.11
68616;BME280;57261;47.504;19.084;2022-11-20T21:14:59;99991.19;;;13.78;69.62
68616;BME280;57261;47.504;19.084;2022-11-20T21:17:59;100027.19;;;13.84;70.94
68616;BME280;57261;47.504;19.084;2022-11-20T21:21:04;99987.66;;;13.79;70.88
68616;BME280;57261;47.504;19.084;2022-11-20T21:24:27;99984.69;;;13.88;71.35
68616;BME280;57261;47.504;19.084;2022-11-20T21:27:27;99977.06;;;13.65;69.65
68616;BME280;57261;47.504;19.084;2022-11-20T21:30:27;99976.38;;;13.60;65.63
68616;BME280;57261;47.504;19.084;2022-11-20T21:36:38;100004.94;;;13.58;71.02
68616;BME280;57261;47.504;19.084;2022-11-20T21:39:39;99990.81;;;13.65;71.42
68616;BME280;57261;47.504;19.084;2022-11-20T21:42:49;99983.97;;;13.64;66.08
68616;BME280;57261;47.504;19.084;2022-11-20T21:45:50;100001.28;;;13.62;69.86
68616;BME280;57261;47.504;19.084;2022-11-20T21:48:56;100008.13;;;13.65;70.98
68616;BME280;57261;47.504;19.084;2022-11-20T21:51:56;100001.97;;;13.67;71.68
68616;BME280;57261;47.504;19.084;2022-11-20T21:54:57;99976.72;;;13.72;70.86
68616;BME280;57261;47.504;19.084;2022-11-20T21:57:58;99979.84;;;13.80;71.52
68616;BME280;57261;47.504;19.084;2022-11-20T22:00:59;99986.94;;;13.75;70.47
68616;BME280;57261;47.504;19.084;2022-11-20T22:04:06;99980.13;;;13.73;71.48
68616;BME280;57261;47.504;19.084;2022-11-20T22:07:08;99984.50;;;13.72;69.95
68616;BME280;57261;47.504;19.084;2022-11-20T22:10:08;99977.97;;;13.84;70.97
68616;BME280;57261;47.504;19.084;2022-11-20T22:13:09;99976.84;;;13.69;67.79
68616;BME280;57261;47.504;19.084;2022-11-20T22:16:28;99975.41;;;13.62;68.33
68616;BME280;57261;47.504;19.084;2022-11-20T22:19:29;99964.84;;;13.67;70.34
68616;BME280;57261;47.504;19.084;2022-11-20T22:22:29;99958.31;;;13.58;66.21
68616;BME280;57261;47.504;19.084;2022-11-20T22:25:31;99955.91;;;13.54;68.36
68616;BME280;57261;47.504;19.084;2022-11-20T22:28:32;99958.31;;;13.58;71.04
68616;BME280;57261;47.504;19.084;2022-11-20T22:31:33;99955.41;;;13.66;71.08
68616;BME280;57261;47.504;19.084;2022-11-20T22:34:33;99950.19;;;13.67;71.54
68616;BME280;57261;47.504;19.084;2022-11-20T22:37:34;99948.09;;;13.75;71.52
68616;BME280;57261;47.504;19.084;2022-11-20T22:40:34;99942.06;;;13.75;71.33
68616;BME280;57261;47.504;19.084;2022-11-20T22:43:35;99940.38;;;13.54;65.58
68616;BME280;57261;47.504;19.084;2022-11-20T22:46:36;99941.16;;;13.56;71.35
68616;BME280;57261;47.504;19.084;2022-11-20T22:49:37;99929.91;;;13.57;68.40
68616;BME280;57261;47.504;19.084;2022-11-20T22:52:37;99928.22;;;13.56;71.26
68616;BME280;57261;47.504;19.084;2022-11-20T22:55:38;99932.63;;;13.54;68.75
68616;BME280;57261;47.504;19.084;2022-11-20T22:58:40;99938.69;;;13.53;71.13
68616;BME280;57261;47.504;19.084;2022-11-20T23:01:40;99928.47;;;13.50;70.52
68616;BME280;57261;47.504;19.084;2022-11-20T23:04:41;99925.72;;;13.54;71.47
68616;BME280;57261;47.504;19.084;2022-11-20T23:07:41;99923.31;;;13.50;67.92
68616;BME280;57261;47.504;19.084;2022-11-20T23:10:42;99918.38;;;13.44;70.43
68616;BME280;57261;47.504;19.084;2022-11-20T23:13:44;99912.34;;;13.43;69.97